North Hatfield, MA

6:02 AM EST on December 15, 2019 (GMT -0500)
North Hatfield | | Change Station
Active Advisory: Wind Advisory

Elev 141 ft 42.42 °N, 72.59 °W | Updated 13 seconds ago

Overcast
Overcast
42.8 °F
Feels Like 39 °F
N
5.8
Wind Variable Wind from SW
Gusts 7.4 mph

Today
High -- | Low -- °F
--% Chance of Precip.
Yesterday
High -- | Low -- °F
Precip. -- in
Pressure 29.45 in
Visibility 10.0 miles
Clouds Overcast 3300 ft
Windchill 39 °F
Dew Point 11 °F
Humidity 27%
Rainfall 0.00 in
Snow Depth Not available.
7:12 AM 4:18 PM
Waning Gibbous, 88% visible
METAR KCEF 150956Z AUTO 27016G20KT 10SM OVC033 05/M01 A2943 RMK AO2 PK WND 27026/46 SLP973 T00531012
Pressure 29.45 in
Visibility 10.0 miles
Clouds Overcast 3300 ft
Windchill 39 °F
Dew Point 11 °F
Humidity 27%
Rainfall 0.00 in
Snow Depth Not available.
7:12 AM 4:18 PM
Waning Gibbous, 88% visible
METAR KCEF 150956Z AUTO 27016G20KT 10SM OVC033 05/M01 A2943 RMK AO2 PK WND 27026/46 SLP973 T00531012

Get Your Daily Forecast Email!

Thanks for signing up!

Be on the lookout for a verification email in your inbox.

You'll start receiving severe weather alerts in your inbox..

×

10-Day Weather Forecast

Almanac

Astronomy

Dec. 15, 2019 Rise Set
Actual Time
Civil Twilight
Nautical Twilight
Astronomical Twilight
Moon
Length of Visible Light
Length of Day
Tomorrow will be .
, % of the Moon is Illuminated

Today's Extremes

State Highs State Lows

Community

WunderPhotos

Category 6

Welcome to Category 6. This is the collective home for Weather Underground's featured writeups by Dr. Jeff Masters (right), Bob Henson (left), Chris Burt, and other regular contributors.

Nearby

Air Quality

  Air Quality AQ Index Pollutant
Not available.

Snow Depth

Station Depth Elevation

Earthquake Activity

City Distance Mag. Time & Date
Minimum magnitude displayed is 2.5.

Coastal Water Temperatures

Place Temperature

Stations

Nearby Weather Stations

Station Location Temp. Windchill Dew Point Humidity Wind Precip. Elev Updated Type
                   

Watches & Warnings

Wind Advisory
Issued: 3:56 AM EST Dec. 15, 2019 – National Weather Service

... Wind Advisory remains in effect from 7 am this morning to 7 PM
EST this evening...

* what... west winds 20 to 30 mph with gusts up to 50 mph
expected.

* Where... portions of central, eastern, northeastern,
southeastern and western Massachusetts.

* When... from 7 am this morning to 7 PM EST this evening.

* Impacts... gusty winds could blow around unsecured objects.
Tree limbs could be blown down and a few power outages may
result.

Precautionary/preparedness actions...

Use extra caution when driving, especially if operating a high
profile vehicle. Secure outdoor objects.



For more information from the National Weather Service visit
https://weather.Gov/box